sensor_id;sensor_type;location;lat;lon;timestamp;P1;durP1;ratioP1;P2;durP2;ratioP2
79005;SDS011;69202;45.498;-73.582;2023-04-12T00:01:57;17.17;;;5.40;;
79005;SDS011;69202;45.498;-73.582;2023-04-12T00:04:23;13.10;;;5.25;;
79005;SDS011;69202;45.498;-73.582;2023-04-12T00:06:51;17.75;;;4.88;;
79005;SDS011;69202;45.498;-73.582;2023-04-12T00:09:18;14.27;;;4.93;;
79005;SDS011;69202;45.498;-73.582;2023-04-12T00:11:45;15.63;;;5.30;;
79005;SDS011;69202;45.498;-73.582;2023-04-12T00:14:11;14.15;;;5.50;;
79005;SDS011;69202;45.498;-73.582;2023-04-12T00:16:36;16.33;;;4.90;;
79005;SDS011;69202;45.498;-73.582;2023-04-12T00:19:03;12.10;;;4.38;;
79005;SDS011;69202;45.498;-73.582;2023-04-12T00:21:30;12.82;;;4.70;;
79005;SDS011;69202;45.498;-73.582;2023-04-12T00:23:56;10.75;;;4.78;;
79005;SDS011;69202;45.498;-73.582;2023-04-12T00:26:23;8.70;;;3.83;;
79005;SDS011;69202;45.498;-73.582;2023-04-12T00:28:51;9.13;;;4.50;;
79005;SDS011;69202;45.498;-73.582;2023-04-12T00:31:17;9.77;;;4.25;;
79005;SDS011;69202;45.498;-73.582;2023-04-12T00:33:43;8.13;;;4.60;;
79005;SDS011;69202;45.498;-73.582;2023-04-12T00:36:10;9.07;;;4.32;;
79005;SDS011;69202;45.498;-73.582;2023-04-12T00:38:36;9.45;;;4.15;;
79005;SDS011;69202;45.498;-73.582;2023-04-12T00:41:02;10.43;;;4.30;;
79005;SDS011;69202;45.498;-73.582;2023-04-12T00:43:28;7.13;;;4.28;;
79005;SDS011;69202;45.498;-73.582;2023-04-12T00:45:54;8.23;;;4.05;;
79005;SDS011;69202;45.498;-73.582;2023-04-12T00:48:27;11.85;;;4.30;;
79005;SDS011;69202;45.498;-73.582;2023-04-12T00:50:55;11.07;;;3.97;;
79005;SDS011;69202;45.498;-73.582;2023-04-12T00:53:21;7.88;;;3.47;;
79005;SDS011;69202;45.498;-73.582;2023-04-12T00:55:48;12.32;;;3.75;;
79005;SDS011;69202;45.498;-73.582;2023-04-12T00:58:15;10.73;;;4.32;;
79005;SDS011;69202;45.498;-73.582;2023-04-12T01:00:42;9.77;;;3.88;;
79005;SDS011;69202;45.498;-73.582;2023-04-12T01:03:20;7.93;;;3.50;;
79005;SDS011;69202;45.498;-73.582;2023-04-12T01:06:35;10.93;;;3.67;;
79005;SDS011;69202;45.498;-73.582;2023-04-12T01:11:55;7.03;;;3.15;;
79005;SDS011;69202;45.498;-73.582;2023-04-12T01:17:12;10.45;;;3.70;;
79005;SDS011;69202;45.498;-73.582;2023-04-12T01:19:55;6.32;;;2.83;;
79005;SDS011;69202;45.498;-73.582;2023-04-12T01:28:06;4.22;;;2.80;;
79005;SDS011;69202;45.498;-73.582;2023-04-12T01:30:34;5.43;;;3.05;;
79005;SDS011;69202;45.498;-73.582;2023-04-12T01:33:02;5.30;;;2.40;;
79005;SDS011;69202;45.498;-73.582;2023-04-12T01:35:31;10.23;;;3.00;;
79005;SDS011;69202;45.498;-73.582;2023-04-12T01:37:57;5.75;;;2.65;;
79005;SDS011;69202;45.498;-73.582;2023-04-12T01:40:25;7.13;;;2.45;;
79005;SDS011;69202;45.498;-73.582;2023-04-12T01:43:14;4.88;;;2.30;;
79005;SDS011;69202;45.498;-73.582;2023-04-12T01:45:42;5.32;;;2.10;;
79005;SDS011;69202;45.498;-73.582;2023-04-12T01:48:09;8.32;;;2.65;;
79005;SDS011;69202;45.498;-73.582;2023-04-12T01:50:40;4.53;;;1.80;;
79005;SDS011;69202;45.498;-73.582;2023-04-12T01:55:38;6.20;;;1.80;;
79005;SDS011;69202;45.498;-73.582;2023-04-12T01:58:10;6.72;;;1.98;;
79005;SDS011;69202;45.498;-73.582;2023-04-12T02:00:36;6.72;;;2.00;;
79005;SDS011;69202;45.498;-73.582;2023-04-12T02:03:07;3.40;;;1.67;;
79005;SDS011;69202;45.498;-73.582;2023-04-12T02:05:34;7.28;;;1.90;;
79005;SDS011;69202;45.498;-73.582;2023-04-12T02:08:01;7.55;;;2.08;;
79005;SDS011;69202;45.498;-73.582;2023-04-12T02:10:28;7.68;;;2.17;;
79005;SDS011;69202;45.498;-73.582;2023-04-12T02:12:58;1.95;;;1.73;;
79005;SDS011;69202;45.498;-73.582;2023-04-12T02:15:28;3.53;;;2.08;;
79005;SDS011;69202;45.498;-73.582;2023-04-12T02:17:54;5.47;;;1.95;;
79005;SDS011;69202;45.498;-73.582;2023-04-12T02:20:20;6.13;;;1.73;;
79005;SDS011;69202;45.498;-73.582;2023-04-12T02:22:48;4.85;;;2.05;;
79005;SDS011;69202;45.498;-73.582;2023-04-12T02:25:14;4.00;;;1.90;;
79005;SDS011;69202;45.498;-73.582;2023-04-12T02:27:45;4.07;;;2.10;;
79005;SDS011;69202;45.498;-73.582;2023-04-12T02:30:13;7.10;;;2.20;;
79005;SDS011;69202;45.498;-73.582;2023-04-12T02:32:39;4.53;;;1.80;;
79005;SDS011;69202;45.498;-73.582;2023-04-12T02:35:12;4.63;;;2.00;;
79005;SDS011;69202;45.498;-73.582;2023-04-12T02:37:42;4.72;;;2.42;;
79005;SDS011;69202;45.498;-73.582;2023-04-12T02:40:11;4.93;;;2.13;;
79005;SDS011;69202;45.498;-73.582;2023-04-12T02:42:42;6.15;;;1.90;;
79005;SDS011;69202;45.498;-73.582;2023-04-12T02:45:09;4.60;;;1.80;;
79005;SDS011;69202;45.498;-73.582;2023-04-12T02:47:36;3.00;;;1.83;;
79005;SDS011;69202;45.498;-73.582;2023-04-12T02:50:02;5.53;;;1.90;;
79005;SDS011;69202;45.498;-73.582;2023-04-12T02:52:29;5.72;;;2.13;;
79005;SDS011;69202;45.498;-73.582;2023-04-12T02:54:57;4.43;;;2.40;;
79005;SDS011;69202;45.498;-73.582;2023-04-12T02:57:23;3.58;;;2.03;;
79005;SDS011;69202;45.498;-73.582;2023-04-12T02:59:52;4.82;;;1.77;;
79005;SDS011;69202;45.498;-73.582;2023-04-12T03:02:19;6.05;;;2.30;;
79005;SDS011;69202;45.498;-73.582;2023-04-12T03:04:45;4.53;;;2.08;;
79005;SDS011;69202;45.498;-73.582;2023-04-12T03:07:17;3.65;;;1.95;;
79005;SDS011;69202;45.498;-73.582;2023-04-12T03:09:48;6.70;;;2.40;;
79005;SDS011;69202;45.498;-73.582;2023-04-12T03:12:15;4.80;;;2.10;;
79005;SDS011;69202;45.498;-73.582;2023-04-12T03:14:41;3.95;;;1.77;;
79005;SDS011;69202;45.498;-73.582;2023-04-12T03:17:07;3.17;;;1.92;;
79005;SDS011;69202;45.498;-73.582;2023-04-12T03:19:34;7.43;;;2.00;;
79005;SDS011;69202;45.498;-73.582;2023-04-12T03:22:01;4.25;;;1.80;;
79005;SDS011;69202;45.498;-73.582;2023-04-12T03:24:28;7.65;;;1.90;;
79005;SDS011;69202;45.498;-73.582;2023-04-12T03:26:59;8.40;;;2.10;;
79005;SDS011;69202;45.498;-73.582;2023-04-12T03:29:28;4.60;;;1.80;;
79005;SDS011;69202;45.498;-73.582;2023-04-12T03:31:55;4.05;;;1.80;;
79005;SDS011;69202;45.498;-73.582;2023-04-12T03:34:26;9.57;;;2.05;;
79005;SDS011;69202;45.498;-73.582;2023-04-12T03:36:56;3.67;;;2.10;;
79005;SDS011;69202;45.498;-73.582;2023-04-12T03:39:23;5.25;;;1.88;;
79005;SDS011;69202;45.498;-73.582;2023-04-12T03:41:49;5.95;;;2.08;;
79005;SDS011;69202;45.498;-73.582;2023-04-12T03:44:17;5.65;;;1.67;;
79005;SDS011;69202;45.498;-73.582;2023-04-12T03:46:43;2.38;;;1.77;;
79005;SDS011;69202;45.498;-73.582;2023-04-12T03:49:10;2.45;;;1.95;;
79005;SDS011;69202;45.498;-73.582;2023-04-12T03:51:36;2.83;;;1.80;;
79005;SDS011;69202;45.498;-73.582;2023-04-12T03:54:10;6.53;;;1.80;;
79005;SDS011;69202;45.498;-73.582;2023-04-12T03:56:37;3.60;;;1.55;;
79005;SDS011;69202;45.498;-73.582;2023-04-12T03:59:04;5.20;;;1.88;;
79005;SDS011;69202;45.498;-73.582;2023-04-12T04:01:32;3.63;;;1.83;;
79005;SDS011;69202;45.498;-73.582;2023-04-12T04:03:58;2.95;;;1.90;;
79005;SDS011;69202;45.498;-73.582;2023-04-12T04:06:25;4.65;;;1.73;;
79005;SDS011;69202;45.498;-73.582;2023-04-12T04:08:51;3.45;;;1.70;;
79005;SDS011;69202;45.498;-73.582;2023-04-12T04:11:17;3.28;;;1.80;;
79005;SDS011;69202;45.498;-73.582;2023-04-12T04:13:43;3.08;;;1.60;;
79005;SDS011;69202;45.498;-73.582;2023-04-12T04:16:10;4.20;;;1.70;;
79005;SDS011;69202;45.498;-73.582;2023-04-12T04:18:36;4.22;;;1.88;;
79005;SDS011;69202;45.498;-73.582;2023-04-12T04:21:02;3.20;;;1.80;;
79005;SDS011;69202;45.498;-73.582;2023-04-12T04:23:29;6.10;;;2.00;;
79005;SDS011;69202;45.498;-73.582;2023-04-12T04:26:03;4.63;;;1.80;;
79005;SDS011;69202;45.498;-73.582;2023-04-12T04:28:36;4.45;;;1.92;;
79005;SDS011;69202;45.498;-73.582;2023-04-12T04:31:06;3.72;;;1.90;;
79005;SDS011;69202;45.498;-73.582;2023-04-12T04:33:34;3.55;;;1.67;;
79005;SDS011;69202;45.498;-73.582;2023-04-12T04:36:01;6.63;;;1.75;;
79005;SDS011;69202;45.498;-73.582;2023-04-12T04:38:30;5.18;;;1.75;;
79005;SDS011;69202;45.498;-73.582;2023-04-12T04:40:59;4.10;;;1.90;;
79005;SDS011;69202;45.498;-73.582;2023-04-12T04:43:27;4.63;;;1.80;;
79005;SDS011;69202;45.498;-73.582;2023-04-12T04:45:58;3.30;;;1.83;;
79005;SDS011;69202;45.498;-73.582;2023-04-12T04:48:25;4.28;;;1.80;;
79005;SDS011;69202;45.498;-73.582;2023-04-12T04:50:51;3.13;;;1.90;;
79005;SDS011;69202;45.498;-73.582;2023-04-12T04:53:17;2.92;;;1.35;;
79005;SDS011;69202;45.498;-73.582;2023-04-12T04:55:45;3.15;;;1.77;;
79005;SDS011;69202;45.498;-73.582;2023-04-12T04:58:12;4.40;;;1.60;;
79005;SDS011;69202;45.498;-73.582;2023-04-12T05:00:39;1.60;;;1.42;;
79005;SDS011;69202;45.498;-73.582;2023-04-12T05:03:05;6.55;;;2.10;;
79005;SDS011;69202;45.498;-73.582;2023-04-12T05:05:30;3.60;;;1.33;;
79005;SDS011;69202;45.498;-73.582;2023-04-12T05:07:56;1.88;;;1.00;;
79005;SDS011;69202;45.498;-73.582;2023-04-12T05:10:23;2.50;;;1.10;;
79005;SDS011;69202;45.498;-73.582;2023-04-12T05:12:49;2.80;;;0.80;;
79005;SDS011;69202;45.498;-73.582;2023-04-12T05:15:15;4.32;;;0.93;;
79005;SDS011;69202;45.498;-73.582;2023-04-12T05:17:40;3.90;;;1.10;;
79005;SDS011;69202;45.498;-73.582;2023-04-12T05:20:06;2.67;;;0.70;;
79005;SDS011;69202;45.498;-73.582;2023-04-12T05:22:34;6.88;;;0.90;;
79005;SDS011;69202;45.498;-73.582;2023-04-12T05:25:00;1.00;;;0.90;;
79005;SDS011;69202;45.498;-73.582;2023-04-12T05:27:28;4.70;;;0.82;;
79005;SDS011;69202;45.498;-73.582;2023-04-12T05:29:57;3.42;;;1.00;;
79005;SDS011;69202;45.498;-73.582;2023-04-12T05:32:24;4.25;;;0.90;;
79005;SDS011;69202;45.498;-73.582;2023-04-12T05:34:50;1.98;;;1.00;;
79005;SDS011;69202;45.498;-73.582;2023-04-12T05:37:16;2.33;;;0.93;;
79005;SDS011;69202;45.498;-73.582;2023-04-12T05:39:42;0.80;;;0.80;;
79005;SDS011;69202;45.498;-73.582;2023-04-12T05:42:08;2.42;;;1.08;;
79005;SDS011;69202;45.498;-73.582;2023-04-12T05:44:34;0.85;;;0.80;;
79005;SDS011;69202;45.498;-73.582;2023-04-12T05:47:03;4.55;;;0.90;;
79005;SDS011;69202;45.498;-73.582;2023-04-12T05:49:30;4.45;;;0.80;;
79005;SDS011;69202;45.498;-73.582;2023-04-12T05:51:56;0.70;;;0.60;;
79005;SDS011;69202;45.498;-73.582;2023-04-12T05:54:22;1.42;;;0.82;;
79005;SDS011;69202;45.498;-73.582;2023-04-12T05:56:49;1.00;;;0.60;;
79005;SDS011;69202;45.498;-73.582;2023-04-12T05:59:18;1.15;;;0.50;;
79005;SDS011;69202;45.498;-73.582;2023-04-12T06:01:44;0.70;;;0.70;;
79005;SDS011;69202;45.498;-73.582;2023-04-12T06:04:11;2.33;;;0.68;;
79005;SDS011;69202;45.498;-73.582;2023-04-12T06:06:37;0.65;;;0.60;;
79005;SDS011;69202;45.498;-73.582;2023-04-12T06:09:03;0.60;;;0.60;;
79005;SDS011;69202;45.498;-73.582;2023-04-12T06:11:29;1.98;;;0.70;;
79005;SDS011;69202;45.498;-73.582;2023-04-12T06:13:58;0.60;;;0.57;;
79005;SDS011;69202;45.498;-73.582;2023-04-12T06:16:28;1.73;;;0.60;;
79005;SDS011;69202;45.498;-73.582;2023-04-12T06:18:54;0.80;;;0.60;;
79005;SDS011;69202;45.498;-73.582;2023-04-12T06:21:20;1.08;;;0.55;;
79005;SDS011;69202;45.498;-73.582;2023-04-12T06:23:46;1.00;;;0.70;;
79005;SDS011;69202;45.498;-73.582;2023-04-12T06:26:12;2.50;;;0.50;;
79005;SDS011;69202;45.498;-73.582;2023-04-12T06:28:37;1.58;;;0.80;;
79005;SDS011;69202;45.498;-73.582;2023-04-12T06:31:04;2.65;;;0.70;;
79005;SDS011;69202;45.498;-73.582;2023-04-12T06:33:29;1.52;;;0.80;;
79005;SDS011;69202;45.498;-73.582;2023-04-12T06:35:55;1.00;;;0.57;;
79005;SDS011;69202;45.498;-73.582;2023-04-12T06:38:21;1.00;;;0.60;;
79005;SDS011;69202;45.498;-73.582;2023-04-12T06:40:47;1.63;;;0.70;;
79005;SDS011;69202;45.498;-73.582;2023-04-12T06:43:14;1.30;;;0.70;;
79005;SDS011;69202;45.498;-73.582;2023-04-12T06:45:43;0.50;;;0.45;;
79005;SDS011;69202;45.498;-73.582;2023-04-12T06:48:10;2.28;;;0.75;;
79005;SDS011;69202;45.498;-73.582;2023-04-12T06:50:36;4.05;;;0.85;;
79005;SDS011;69202;45.498;-73.582;2023-04-12T06:53:02;3.15;;;0.68;;
79005;SDS011;69202;45.498;-73.582;2023-04-12T06:55:28;0.70;;;0.50;;
79005;SDS011;69202;45.498;-73.582;2023-04-12T06:57:54;0.52;;;0.43;;
79005;SDS011;69202;45.498;-73.582;2023-04-12T07:00:20;0.47;;;0.43;;
79005;SDS011;69202;45.498;-73.582;2023-04-12T07:02:46;1.25;;;0.40;;
79005;SDS011;69202;45.498;-73.582;2023-04-12T07:05:12;2.17;;;0.70;;
79005;SDS011;69202;45.498;-73.582;2023-04-12T07:07:38;1.27;;;0.50;;
79005;SDS011;69202;45.498;-73.582;2023-04-12T07:10:05;1.05;;;0.70;;
79005;SDS011;69202;45.498;-73.582;2023-04-12T07:12:31;1.73;;;0.57;;
79005;SDS011;69202;45.498;-73.582;2023-04-12T07:14:58;0.57;;;0.50;;
79005;SDS011;69202;45.498;-73.582;2023-04-12T07:17:24;1.20;;;0.60;;
79005;SDS011;69202;45.498;-73.582;2023-04-12T07:19:53;0.50;;;0.50;;
79005;SDS011;69202;45.498;-73.582;2023-04-12T07:22:19;1.05;;;0.70;;
79005;SDS011;69202;45.498;-73.582;2023-04-12T07:24:45;0.50;;;0.50;;
79005;SDS011;69202;45.498;-73.582;2023-04-12T07:27:12;0.98;;;0.63;;
79005;SDS011;69202;45.498;-73.582;2023-04-12T07:29:38;0.70;;;0.50;;
79005;SDS011;69202;45.498;-73.582;2023-04-12T07:32:03;0.60;;;0.57;;
79005;SDS011;69202;45.498;-73.582;2023-04-12T07:34:32;0.55;;;0.40;;
79005;SDS011;69202;45.498;-73.582;2023-04-12T07:36:58;1.52;;;0.77;;
79005;SDS011;69202;45.498;-73.582;2023-04-12T07:39:25;1.63;;;0.60;;
79005;SDS011;69202;45.498;-73.582;2023-04-12T07:41:51;2.17;;;0.50;;
79005;SDS011;69202;45.498;-73.582;2023-04-12T07:44:17;0.75;;;0.68;;
79005;SDS011;69202;45.498;-73.582;2023-04-12T07:46:43;0.68;;;0.60;;
79005;SDS011;69202;45.498;-73.582;2023-04-12T07:49:09;2.35;;;0.90;;
79005;SDS011;69202;45.498;-73.582;2023-04-12T07:51:35;1.77;;;0.50;;
79005;SDS011;69202;45.498;-73.582;2023-04-12T07:54:01;1.80;;;0.57;;
79005;SDS011;69202;45.498;-73.582;2023-04-12T07:56:28;0.85;;;0.52;;
79005;SDS011;69202;45.498;-73.582;2023-04-12T07:58:59;1.08;;;0.50;;
79005;SDS011;69202;45.498;-73.582;2023-04-12T08:01:24;1.05;;;0.50;;
79005;SDS011;69202;45.498;-73.582;2023-04-12T08:03:51;0.52;;;0.50;;
79005;SDS011;69202;45.498;-73.582;2023-04-12T08:06:17;1.58;;;0.90;;
79005;SDS011;69202;45.498;-73.582;2023-04-12T08:08:42;0.70;;;0.50;;
79005;SDS011;69202;45.498;-73.582;2023-04-12T08:11:08;4.05;;;0.70;;
79005;SDS011;69202;45.498;-73.582;2023-04-12T08:13:35;1.88;;;0.55;;
79005;SDS011;69202;45.498;-73.582;2023-04-12T08:16:00;0.85;;;0.60;;
79005;SDS011;69202;45.498;-73.582;2023-04-12T08:18:27;0.70;;;0.70;;
79005;SDS011;69202;45.498;-73.582;2023-04-12T08:20:54;1.15;;;0.60;;
79005;SDS011;69202;45.498;-73.582;2023-04-12T08:23:20;2.10;;;0.68;;
79005;SDS011;69202;45.498;-73.582;2023-04-12T08:25:47;1.52;;;0.60;;
79005;SDS011;69202;45.498;-73.582;2023-04-12T08:28:13;0.60;;;0.50;;
79005;SDS011;69202;45.498;-73.582;2023-04-12T08:30:39;2.25;;;0.73;;
79005;SDS011;69202;45.498;-73.582;2023-04-12T08:33:05;0.40;;;0.40;;
79005;SDS011;69202;45.498;-73.582;2023-04-12T08:35:31;0.65;;;0.50;;
79005;SDS011;69202;45.498;-73.582;2023-04-12T08:37:56;1.60;;;0.60;;
79005;SDS011;69202;45.498;-73.582;2023-04-12T08:40:24;0.77;;;0.60;;
79005;SDS011;69202;45.498;-73.582;2023-04-12T08:42:50;0.40;;;0.40;;
79005;SDS011;69202;45.498;-73.582;2023-04-12T08:45:17;0.85;;;0.70;;
79005;SDS011;69202;45.498;-73.582;2023-04-12T08:47:43;1.50;;;0.43;;
79005;SDS011;69202;45.498;-73.582;2023-04-12T08:50:11;0.50;;;0.50;;
79005;SDS011;69202;45.498;-73.582;2023-04-12T08:52:38;0.63;;;0.55;;
79005;SDS011;69202;45.498;-73.582;2023-04-12T08:55:05;0.63;;;0.47;;
79005;SDS011;69202;45.498;-73.582;2023-04-12T08:57:33;2.05;;;0.55;;
79005;SDS011;69202;45.498;-73.582;2023-04-12T09:00:00;0.82;;;0.40;;
79005;SDS011;69202;45.498;-73.582;2023-04-12T09:02:28;3.60;;;0.50;;
79005;SDS011;69202;45.498;-73.582;2023-04-12T09:04:55;0.80;;;0.55;;
79005;SDS011;69202;45.498;-73.582;2023-04-12T09:07:21;0.82;;;0.60;;
79005;SDS011;69202;45.498;-73.582;2023-04-12T09:09:48;1.10;;;0.50;;
79005;SDS011;69202;45.498;-73.582;2023-04-12T09:12:15;0.77;;;0.57;;
79005;SDS011;69202;45.498;-73.582;2023-04-12T09:14:44;2.92;;;0.63;;
79005;SDS011;69202;45.498;-73.582;2023-04-12T09:17:23;2.40;;;0.60;;
79005;SDS011;69202;45.498;-73.582;2023-04-12T09:19:50;2.58;;;0.70;;
79005;SDS011;69202;45.498;-73.582;2023-04-12T09:22:17;0.60;;;0.60;;
79005;SDS011;69202;45.498;-73.582;2023-04-12T09:24:47;2.55;;;0.50;;
79005;SDS011;69202;45.498;-73.582;2023-04-12T09:27:16;2.67;;;0.90;;
79005;SDS011;69202;45.498;-73.582;2023-04-12T09:29:45;4.53;;;0.93;;
79005;SDS011;69202;45.498;-73.582;2023-04-12T09:32:22;3.58;;;0.65;;
79005;SDS011;69202;45.498;-73.582;2023-04-12T09:34:59;3.17;;;0.60;;
79005;SDS011;69202;45.498;-73.582;2023-04-12T09:37:26;0.50;;;0.50;;
79005;SDS011;69202;45.498;-73.582;2023-04-12T09:40:25;1.30;;;0.52;;
79005;SDS011;69202;45.498;-73.582;2023-04-12T09:42:52;2.23;;;0.67;;
79005;SDS011;69202;45.498;-73.582;2023-04-12T09:45:19;0.82;;;0.60;;
79005;SDS011;69202;45.498;-73.582;2023-04-12T09:47:46;1.13;;;0.50;;
79005;SDS011;69202;45.498;-73.582;2023-04-12T09:50:23;1.80;;;0.80;;
79005;SDS011;69202;45.498;-73.582;2023-04-12T09:52:54;1.20;;;0.60;;
79005;SDS011;69202;45.498;-73.582;2023-04-12T09:55:21;0.93;;;0.50;;
79005;SDS011;69202;45.498;-73.582;2023-04-12T09:57:49;2.20;;;0.50;;
79005;SDS011;69202;45.498;-73.582;2023-04-12T10:00:16;1.58;;;0.60;;
79005;SDS011;69202;45.498;-73.582;2023-04-12T10:02:46;3.75;;;0.80;;
79005;SDS011;69202;45.498;-73.582;2023-04-12T10:05:17;0.95;;;0.70;;
79005;SDS011;69202;45.498;-73.582;2023-04-12T10:07:45;2.67;;;0.57;;
79005;SDS011;69202;45.498;-73.582;2023-04-12T10:10:12;2.15;;;0.68;;
79005;SDS011;69202;45.498;-73.582;2023-04-12T10:12:41;2.13;;;0.60;;
79005;SDS011;69202;45.498;-73.582;2023-04-12T10:15:08;2.28;;;0.70;;
79005;SDS011;69202;45.498;-73.582;2023-04-12T10:17:42;4.60;;;0.80;;
79005;SDS011;69202;45.498;-73.582;2023-04-12T10:20:12;0.90;;;0.70;;
79005;SDS011;69202;45.498;-73.582;2023-04-12T10:22:40;4.10;;;0.80;;
79005;SDS011;69202;45.498;-73.582;2023-04-12T10:25:14;2.83;;;0.63;;
79005;SDS011;69202;45.498;-73.582;2023-04-12T10:27:42;4.57;;;0.80;;
79005;SDS011;69202;45.498;-73.582;2023-04-12T10:30:28;4.50;;;0.82;;
79005;SDS011;69202;45.498;-73.582;2023-04-12T10:35:28;1.65;;;0.57;;
79005;SDS011;69202;45.498;-73.582;2023-04-12T10:38:01;1.38;;;0.70;;
79005;SDS011;69202;45.498;-73.582;2023-04-12T10:40:29;3.63;;;0.70;;
79005;SDS011;69202;45.498;-73.582;2023-04-12T10:43:42;0.60;;;0.60;;
79005;SDS011;69202;45.498;-73.582;2023-04-12T10:45:49;3.67;;;0.60;;
79005;SDS011;69202;45.498;-73.582;2023-04-12T10:51:13;1.75;;;0.60;;
79005;SDS011;69202;45.498;-73.582;2023-04-12T10:53:49;3.08;;;0.60;;
79005;SDS011;69202;45.498;-73.582;2023-04-12T10:58:57;5.13;;;0.73;;
79005;SDS011;69202;45.498;-73.582;2023-04-12T11:01:25;6.47;;;0.70;;
79005;SDS011;69202;45.498;-73.582;2023-04-12T11:04:07;2.03;;;0.70;;
79005;SDS011;69202;45.498;-73.582;2023-04-12T11:19:37;1.20;;;0.60;;
79005;SDS011;69202;45.498;-73.582;2023-04-12T11:22:04;3.60;;;0.95;;
79005;SDS011;69202;45.498;-73.582;2023-04-12T11:24:37;1.52;;;0.52;;
79005;SDS011;69202;45.498;-73.582;2023-04-12T11:27:04;1.38;;;0.60;;
79005;SDS011;69202;45.498;-73.582;2023-04-12T11:29:30;5.50;;;0.60;;
79005;SDS011;69202;45.498;-73.582;2023-04-12T11:32:02;2.95;;;0.60;;
79005;SDS011;69202;45.498;-73.582;2023-04-12T11:34:32;4.07;;;0.60;;
79005;SDS011;69202;45.498;-73.582;2023-04-12T11:36:59;4.00;;;1.10;;
79005;SDS011;69202;45.498;-73.582;2023-04-12T11:39:29;3.72;;;0.98;;
79005;SDS011;69202;45.498;-73.582;2023-04-12T11:41:56;5.20;;;0.50;;
79005;SDS011;69202;45.498;-73.582;2023-04-12T11:44:22;6.13;;;0.70;;
79005;SDS011;69202;45.498;-73.582;2023-04-12T11:46:48;3.78;;;0.80;;
79005;SDS011;69202;45.498;-73.582;2023-04-12T11:49:15;2.78;;;0.88;;
79005;SDS011;69202;45.498;-73.582;2023-04-12T11:51:42;4.18;;;0.90;;
79005;SDS011;69202;45.498;-73.582;2023-04-12T11:54:09;1.70;;;0.80;;
79005;SDS011;69202;45.498;-73.582;2023-04-12T11:56:35;8.35;;;0.82;;
79005;SDS011;69202;45.498;-73.582;2023-04-12T11:59:02;1.92;;;0.63;;
79005;SDS011;69202;45.498;-73.582;2023-04-12T12:01:29;2.70;;;0.70;;
79005;SDS011;69202;45.498;-73.582;2023-04-12T12:03:56;4.45;;;0.85;;
79005;SDS011;69202;45.498;-73.582;2023-04-12T12:06:23;2.90;;;0.88;;
79005;SDS011;69202;45.498;-73.582;2023-04-12T12:08:51;3.13;;;0.65;;
79005;SDS011;69202;45.498;-73.582;2023-04-12T12:11:21;5.05;;;0.77;;
79005;SDS011;69202;45.498;-73.582;2023-04-12T12:13:51;2.97;;;0.70;;
79005;SDS011;69202;45.498;-73.582;2023-04-12T12:16:26;4.97;;;0.63;;
79005;SDS011;69202;45.498;-73.582;2023-04-12T12:18:53;7.18;;;0.80;;
79005;SDS011;69202;45.498;-73.582;2023-04-12T12:21:20;1.40;;;0.57;;
79005;SDS011;69202;45.498;-73.582;2023-04-12T12:23:47;4.85;;;0.68;;
79005;SDS011;69202;45.498;-73.582;2023-04-12T12:26:20;2.15;;;0.73;;
79005;SDS011;69202;45.498;-73.582;2023-04-12T12:28:48;4.05;;;0.82;;
79005;SDS011;69202;45.498;-73.582;2023-04-12T12:31:17;5.45;;;0.60;;
79005;SDS011;69202;45.498;-73.582;2023-04-12T12:33:45;6.05;;;0.70;;
79005;SDS011;69202;45.498;-73.582;2023-04-12T12:36:11;5.25;;;0.60;;
79005;SDS011;69202;45.498;-73.582;2023-04-12T12:38:41;4.70;;;0.82;;
79005;SDS011;69202;45.498;-73.582;2023-04-12T12:41:14;2.40;;;1.20;;
79005;SDS011;69202;45.498;-73.582;2023-04-12T12:43:47;1.13;;;0.70;;
79005;SDS011;69202;45.498;-73.582;2023-04-12T12:46:15;1.80;;;0.70;;
79005;SDS011;69202;45.498;-73.582;2023-04-12T12:48:42;4.03;;;0.70;;
79005;SDS011;69202;45.498;-73.582;2023-04-12T12:51:09;5.43;;;0.70;;
79005;SDS011;69202;45.498;-73.582;2023-04-12T12:53:36;3.10;;;0.70;;
79005;SDS011;69202;45.498;-73.582;2023-04-12T12:56:06;1.20;;;0.68;;
79005;SDS011;69202;45.498;-73.582;2023-04-12T12:58:34;2.85;;;0.70;;
79005;SDS011;69202;45.498;-73.582;2023-04-12T13:01:00;3.28;;;0.80;;
79005;SDS011;69202;45.498;-73.582;2023-04-12T13:03:30;2.42;;;0.60;;
79005;SDS011;69202;45.498;-73.582;2023-04-12T13:05:56;4.75;;;0.70;;
79005;SDS011;69202;45.498;-73.582;2023-04-12T13:08:22;5.15;;;0.73;;
79005;SDS011;69202;45.498;-73.582;2023-04-12T13:10:48;1.67;;;0.80;;
79005;SDS011;69202;45.498;-73.582;2023-04-12T13:13:14;8.00;;;1.15;;
79005;SDS011;69202;45.498;-73.582;2023-04-12T13:15:41;3.47;;;0.70;;
79005;SDS011;69202;45.498;-73.582;2023-04-12T13:18:07;8.05;;;0.82;;
79005;SDS011;69202;45.498;-73.582;2023-04-12T13:20:34;3.55;;;0.73;;
79005;SDS011;69202;45.498;-73.582;2023-04-12T13:23:00;3.67;;;1.17;;
79005;SDS011;69202;45.498;-73.582;2023-04-12T13:25:26;2.92;;;0.60;;
79005;SDS011;69202;45.498;-73.582;2023-04-12T13:27:52;5.35;;;0.60;;
79005;SDS011;69202;45.498;-73.582;2023-04-12T13:30:18;3.10;;;0.60;;
79005;SDS011;69202;45.498;-73.582;2023-04-12T13:32:44;0.57;;;0.40;;
79005;SDS011;69202;45.498;-73.582;2023-04-12T13:35:10;1.10;;;0.68;;
79005;SDS011;69202;45.498;-73.582;2023-04-12T13:37:37;3.47;;;0.80;;
79005;SDS011;69202;45.498;-73.582;2023-04-12T13:40:03;2.13;;;0.90;;
79005;SDS011;69202;45.498;-73.582;2023-04-12T13:42:29;2.38;;;0.77;;
79005;SDS011;69202;45.498;-73.582;2023-04-12T13:44:55;0.90;;;0.70;;
79005;SDS011;69202;45.498;-73.582;2023-04-12T13:47:21;3.30;;;0.68;;
79005;SDS011;69202;45.498;-73.582;2023-04-12T13:49:47;1.73;;;0.52;;
79005;SDS011;69202;45.498;-73.582;2023-04-12T13:52:13;5.53;;;0.70;;
79005;SDS011;69202;45.498;-73.582;2023-04-12T13:54:40;5.78;;;0.70;;
79005;SDS011;69202;45.498;-73.582;2023-04-12T13:57:07;4.65;;;0.88;;
79005;SDS011;69202;45.498;-73.582;2023-04-12T13:59:34;1.35;;;0.63;;
79005;SDS011;69202;45.498;-73.582;2023-04-12T14:02:00;5.68;;;0.70;;
79005;SDS011;69202;45.498;-73.582;2023-04-12T14:04:27;1.50;;;0.68;;
79005;SDS011;69202;45.498;-73.582;2023-04-12T14:06:54;2.33;;;0.70;;
79005;SDS011;69202;45.498;-73.582;2023-04-12T14:09:24;0.57;;;0.50;;
79005;SDS011;69202;45.498;-73.582;2023-04-12T14:11:55;3.10;;;0.80;;
79005;SDS011;69202;45.498;-73.582;2023-04-12T14:14:22;2.05;;;0.60;;
79005;SDS011;69202;45.498;-73.582;2023-04-12T14:16:50;1.95;;;0.52;;
79005;SDS011;69202;45.498;-73.582;2023-04-12T14:19:18;4.50;;;0.68;;
79005;SDS011;69202;45.498;-73.582;2023-04-12T14:21:45;2.17;;;0.63;;
79005;SDS011;69202;45.498;-73.582;2023-04-12T14:24:12;4.47;;;0.63;;
79005;SDS011;69202;45.498;-73.582;2023-04-12T14:26:38;0.82;;;0.70;;
79005;SDS011;69202;45.498;-73.582;2023-04-12T14:29:05;3.85;;;0.70;;
79005;SDS011;69202;45.498;-73.582;2023-04-12T14:31:31;2.28;;;0.70;;
79005;SDS011;69202;45.498;-73.582;2023-04-12T14:33:58;3.25;;;0.73;;
79005;SDS011;69202;45.498;-73.582;2023-04-12T14:36:24;3.03;;;1.00;;
79005;SDS011;69202;45.498;-73.582;2023-04-12T14:38:51;3.20;;;1.00;;
79005;SDS011;69202;45.498;-73.582;2023-04-12T14:41:17;2.85;;;0.82;;
79005;SDS011;69202;45.498;-73.582;2023-04-12T14:43:43;6.75;;;1.38;;
79005;SDS011;69202;45.498;-73.582;2023-04-12T14:46:10;3.13;;;0.95;;
79005;SDS011;69202;45.498;-73.582;2023-04-12T14:48:37;0.80;;;0.60;;
79005;SDS011;69202;45.498;-73.582;2023-04-12T14:51:03;1.05;;;0.60;;
79005;SDS011;69202;45.498;-73.582;2023-04-12T14:53:29;5.80;;;1.10;;
79005;SDS011;69202;45.498;-73.582;2023-04-12T14:55:55;3.15;;;0.70;;
79005;SDS011;69202;45.498;-73.582;2023-04-12T14:58:21;2.80;;;0.70;;
79005;SDS011;69202;45.498;-73.582;2023-04-12T15:00:47;3.45;;;0.70;;